METAR ET TAF INFORMATION
METAR FOR LFRS
ADDS - METARS form results

(1608 UTC 18 August 2019)
Data provider http://aviationweather.gov/metar/data/
 
METAR text: LFRS 181600Z AUTO 27013KT 230V300 9999 FEW036 21/12 Q1013 NOSIG
Conditions at: LFRS (NANTES/CHATEAU B, FR) observed 1600 UTC 18 August 2019
Temperature: 21.0°C (70°F)
Dewpoint: 12.0°C (54°F) [RH = 56%]
Pressure (altimeter): 29.91 inches Hg (1013.0 mb)
Winds: from the W (270 degrees) at 15 MPH (13 knots; 6.7 m/s)
Visibility: 6 or more miles (10+ km)
Ceiling: at least 12,000 feet AGL
Clouds: few clouds at 3600 feet AGL
Weather: no significant weather observed at this time

METAR text: LFRS 181530Z AUTO 29012KT 260V330 9999 SCT035 BKN041 BKN049 22/12 Q1013 NOSIG
Conditions at: LFRS (NANTES/CHATEAU B, FR) observed 1530 UTC 18 August 2019
Temperature: 22.0°C (72°F)
Dewpoint: 12.0°C (54°F) [RH = 53%]
Pressure (altimeter): 29.91 inches Hg (1013.0 mb)
Winds: from the WNW (290 degrees) at 14 MPH (12 knots; 6.2 m/s)
Visibility: 6 or more miles (10+ km)
Ceiling: 4100 feet AGL
Clouds: scattered clouds at 3500 feet AGL
broken clouds at 4100 feet AGL
broken clouds at 4900 feet AGL
Weather: no significant weather observed at this time

Forecast for: LFRS (NANTES/CHATEAU B, FR)
Text: TAF LFRS 181100Z 1812/1918 29010KT 9999 NSW SCT020 SCT040
Forecast period: 1200 UTC 18 August 2019 to 1800 UTC 19 August 2019
Forecast type: FROM: standard forecast or significant change
Winds: from the WNW (290 degrees) at 12 MPH (10 knots; 5.1 m/s)
Visibility: 6 or more miles 10+ km)
Ceiling: at least 12,000 feet AGL
Clouds: scattered clouds at 2000 feet AGL
scattered clouds at 4000 feet AGL
Weather: NSW  (no significant weather)
Text: PROB40
Forecast period: 0300 to 0700 UTC 19 August 2019
Forecast type: TEMPORARY: The following changes expected for less than half the time period
Winds: variable direction winds at 3 MPH (3 knots; 1.5 m/s)
Visibility: 1.24 miles (2.00 km)
Ceiling: unknown
Clouds: missing
Weather: BR  (mist)
Text: TEMPO 1903/1907 VRB03KT 2000 BR
Forecast period: 0800 to 1200 UTC 19 August 2019
Forecast type: TEMPORARY: The following changes expected for less than half the time period
Visibility: missing
Ceiling: at least 12,000 feet AGL
Clouds: scattered clouds at 3000 feet AGL
Weather: -SHRA  (light rain showers)

 AÉROPORT DE AÉROPORT

 INFORMATIONS DE PISTE
Piste 03 Longueur de la piste 9514 ft Largeur de la piste 148 ft
Élévation de la piste 73 ft Seuil de la piste déplacés 0 ft Runway heading 28
Piste 21 Longueur de la piste 9514 ft Largeur de la piste 148 ft
Élévation de la piste 86 ft Seuil de la piste déplacés 694 ft Runway heading 208

 AÉROPORT FRÉQUENCES
Type APP Nom APP Féquence 130.275 MHZ
Type ATIS Nom ATIS Féquence 126.925 MHZ
Type GND Nom GND Féquence 121.875 MHZ
Type INFO Nom INFO Féquence 129.875 MHZ
Type TWR Nom TWR Féquence 118.65 MHZ

 SIDA DE NAVIGATION
Type NDB Nom Nantes Féquence 369 KHZ
Type VOR-DME Nom Nantes Féquence 115500 KHZ



Powered by Virtual Airlines Manager [v2.6.2]